createdAt,value
2023-03-17T00:01:21.683Z,6.10
2023-03-17T00:03:51.556Z,6.20
2023-03-17T00:06:25.147Z,6.30
2023-03-17T00:08:52.996Z,6.40
2023-03-17T00:11:21.474Z,6.40
2023-03-17T00:13:49.825Z,6.40
2023-03-17T00:16:20.349Z,6.40
2023-03-17T00:18:50.592Z,6.40
2023-03-17T00:21:22.932Z,6.40
2023-03-17T00:23:53.044Z,6.50
2023-03-17T00:26:21.066Z,6.50
2023-03-17T00:28:50.655Z,6.60
2023-03-17T00:31:20.953Z,6.60
2023-03-17T00:33:52.140Z,6.70
2023-03-17T00:36:22.542Z,6.70
2023-03-17T00:38:50.396Z,6.80
2023-03-17T00:41:18.360Z,6.80
2023-03-17T00:43:46.574Z,6.80
2023-03-17T00:46:16.586Z,6.70
2023-03-17T00:48:46.919Z,6.70
2023-03-17T00:51:16.758Z,6.80
2023-03-17T00:53:45.992Z,6.80
2023-03-17T00:56:16.562Z,6.90
2023-03-17T00:58:45.429Z,6.90
2023-03-17T01:01:13.478Z,7.00
2023-03-17T01:03:41.468Z,6.90
2023-03-17T01:06:11.848Z,6.90
2023-03-17T01:08:42.644Z,7.00
2023-03-17T01:11:17.734Z,6.90
2023-03-17T01:13:46.567Z,6.80
2023-03-17T01:16:15.456Z,6.80
2023-03-17T01:18:43.603Z,6.70
2023-03-17T01:21:12.683Z,6.90
2023-03-17T01:23:41.962Z,6.90
2023-03-17T01:26:10.152Z,6.90
2023-03-17T01:28:38.048Z,6.90
2023-03-17T01:31:06.239Z,7.00
2023-03-17T01:33:35.041Z,7.10
2023-03-17T01:36:03.201Z,7.10
2023-03-17T01:38:31.200Z,7.10
2023-03-17T01:41:02.317Z,7.20
2023-03-17T01:43:31.978Z,7.10
2023-03-17T01:46:29.513Z,7.10
2023-03-17T01:49:06.230Z,7.10
2023-03-17T01:51:39.783Z,7.10
2023-03-17T01:54:11.280Z,6.90
2023-03-17T01:56:43.239Z,6.90
2023-03-17T01:59:15.765Z,6.90
2023-03-17T02:01:47.275Z,6.80
2023-03-17T02:04:16.149Z,6.80
2023-03-17T02:06:57.343Z,6.80
2023-03-17T02:09:26.488Z,6.80
2023-03-17T02:11:56.404Z,6.80
2023-03-17T02:14:25.669Z,6.90
2023-03-17T02:16:54.630Z,6.80
2023-03-17T02:19:22.609Z,6.70
2023-03-17T02:21:53.691Z,6.70
2023-03-17T02:24:27.718Z,6.60
2023-03-17T02:26:58.596Z,6.60
2023-03-17T02:29:27.664Z,6.60
2023-03-17T02:31:55.697Z,6.50
2023-03-17T02:34:23.693Z,6.50
2023-03-17T02:36:53.005Z,6.50
2023-03-17T02:39:21.477Z,6.50
2023-03-17T02:41:49.443Z,6.60
2023-03-17T02:44:17.508Z,6.70
2023-03-17T02:46:45.439Z,6.70
2023-03-17T02:49:13.803Z,6.70
2023-03-17T02:51:41.705Z,6.60
2023-03-17T02:54:11.155Z,6.70
2023-03-17T02:56:39.046Z,6.60
2023-03-17T02:59:09.266Z,6.60
2023-03-17T03:01:38.832Z,6.50
2023-03-17T03:04:07.508Z,6.30
2023-03-17T03:06:36.072Z,6.30
2023-03-17T03:09:04.782Z,6.30
2023-03-17T03:11:34.013Z,6.40
2023-03-17T03:14:02.230Z,6.30
2023-03-17T03:16:30.480Z,6.20
2023-03-17T03:18:58.555Z,6.10
2023-03-17T03:21:26.573Z,6.10
2023-03-17T03:23:54.427Z,6.10
2023-03-17T03:26:22.752Z,6.00
2023-03-17T03:28:52.313Z,6.10
2023-03-17T03:31:20.304Z,6.00
2023-03-17T03:33:48.311Z,6.00
2023-03-17T03:36:16.144Z,5.90
2023-03-17T03:38:44.003Z,5.70
2023-03-17T03:41:12.990Z,5.70
2023-03-17T03:43:41.082Z,5.70
2023-03-17T03:46:10.655Z,5.70
2023-03-17T03:48:38.542Z,5.70
2023-03-17T03:51:06.925Z,5.70
2023-03-17T03:53:34.865Z,5.80
2023-03-17T03:56:02.869Z,5.80
2023-03-17T03:58:30.736Z,5.70
2023-03-17T04:00:59.593Z,5.60
2023-03-17T04:03:28.776Z,5.50
2023-03-17T04:05:56.655Z,5.50
2023-03-17T04:08:24.525Z,5.50
2023-03-17T04:10:52.419Z,5.50
2023-03-17T04:13:20.248Z,5.50
2023-03-17T04:15:48.207Z,5.60
2023-03-17T04:18:16.752Z,5.50
2023-03-17T04:20:46.082Z,5.60
2023-03-17T04:23:13.942Z,5.60
2023-03-17T04:25:43.136Z,5.60
2023-03-17T04:28:12.049Z,5.70
2023-03-17T04:30:39.886Z,5.80
2023-03-17T04:33:08.424Z,5.80
2023-03-17T04:35:36.362Z,5.80
2023-03-17T04:38:05.679Z,5.80
2023-03-17T04:40:33.633Z,5.70
2023-03-17T04:43:03.478Z,5.60
2023-03-17T04:45:31.561Z,5.50
2023-03-17T04:47:59.389Z,5.50
2023-03-17T04:50:27.489Z,5.50
2023-03-17T04:52:55.713Z,5.50
2023-03-17T04:55:25.024Z,5.40
2023-03-17T04:57:52.904Z,5.40
2023-03-17T05:00:21.381Z,5.50
2023-03-17T05:02:49.261Z,5.50
2023-03-17T05:05:17.295Z,5.50
2023-03-17T05:07:45.359Z,5.50
2023-03-17T05:10:13.751Z,5.40
2023-03-17T05:12:42.983Z,5.40
2023-03-17T05:15:11.408Z,5.50
2023-03-17T05:17:39.526Z,5.50
2023-03-17T05:20:09.400Z,5.40
2023-03-17T05:22:37.352Z,5.40
2023-03-17T05:25:06.661Z,5.40
2023-03-17T05:27:34.629Z,5.30
2023-03-17T05:30:04.547Z,5.40
2023-03-17T05:32:33.061Z,5.40
2023-03-17T05:35:01.175Z,5.40
2023-03-17T05:37:29.470Z,5.40
2023-03-17T05:39:57.592Z,5.30
2023-03-17T05:42:25.550Z,5.30
2023-03-17T05:44:53.430Z,5.30
2023-03-17T05:47:22.995Z,5.20
2023-03-17T05:49:51.122Z,5.20
2023-03-17T05:52:19.397Z,5.10
2023-03-17T05:54:49.060Z,5.10
2023-03-17T05:57:17.147Z,5.10
2023-03-17T05:59:45.335Z,5.10
2023-03-17T06:02:14.457Z,5.00
2023-03-17T06:04:44.226Z,5.00
2023-03-17T06:07:12.977Z,4.90
2023-03-17T06:09:41.605Z,4.80
2023-03-17T06:12:10.362Z,4.70
2023-03-17T06:14:38.211Z,4.60
2023-03-17T06:17:06.389Z,4.60
2023-03-17T06:19:34.355Z,4.50
2023-03-17T06:22:04.897Z,4.50
2023-03-17T06:24:32.972Z,4.40
2023-03-17T06:27:01.348Z,4.40
2023-03-17T06:29:29.837Z,4.40
2023-03-17T06:32:01.477Z,4.40
2023-03-17T06:34:37.221Z,4.40
2023-03-17T06:37:06.738Z,4.40
2023-03-17T06:39:34.661Z,4.50
2023-03-17T06:42:03.897Z,4.40
2023-03-17T06:44:33.316Z,4.50
2023-03-17T06:47:01.417Z,4.60
2023-03-17T06:49:29.291Z,4.70
2023-03-17T06:51:57.151Z,4.80
2023-03-17T06:54:26.563Z,4.90
2023-03-17T06:56:55.004Z,5.00
2023-03-17T06:59:23.976Z,5.10
2023-03-17T07:01:52.275Z,5.20
2023-03-17T07:04:20.924Z,5.30
2023-03-17T07:06:49.056Z,5.50
2023-03-17T07:09:17.506Z,5.80
2023-03-17T07:11:46.787Z,5.90
2023-03-17T07:14:14.992Z,6.00
2023-03-17T07:16:43.176Z,6.20
2023-03-17T07:19:11.701Z,6.40
2023-03-17T07:21:39.526Z,6.40
2023-03-17T07:24:07.495Z,6.60
2023-03-17T07:26:35.963Z,6.70
2023-03-17T07:29:05.979Z,6.80
2023-03-17T07:31:33.991Z,6.80
2023-03-17T07:34:02.283Z,6.90
2023-03-17T07:36:30.226Z,7.00
2023-03-17T07:38:58.235Z,7.20
2023-03-17T07:41:26.267Z,7.40
2023-03-17T07:43:54.178Z,7.60
2023-03-17T07:46:23.530Z,7.80
2023-03-17T07:48:52.073Z,8.00
2023-03-17T07:51:23.469Z,8.20
2023-03-17T07:53:51.903Z,8.50
2023-03-17T07:56:19.956Z,8.60
2023-03-17T07:58:48.105Z,8.80
2023-03-17T08:01:16.494Z,9.00
2023-03-17T08:03:45.832Z,9.30
2023-03-17T08:06:14.215Z,9.50
2023-03-17T08:08:42.281Z,9.70
2023-03-17T08:11:10.690Z,10.00
2023-03-17T08:13:38.541Z,10.30
2023-03-17T08:16:07.524Z,10.60
2023-03-17T08:18:36.498Z,10.70
2023-03-17T08:21:06.621Z,11.00
2023-03-17T08:23:34.603Z,11.20
2023-03-17T08:26:04.478Z,11.30
2023-03-17T08:28:32.888Z,11.40
2023-03-17T08:31:12.843Z,11.30
2023-03-17T08:33:42.398Z,11.40
2023-03-17T08:36:12.806Z,11.40
2023-03-17T08:38:43.202Z,11.40
2023-03-17T08:41:13.819Z,11.60
2023-03-17T08:43:43.887Z,11.60
2023-03-17T08:46:16.981Z,11.50
2023-03-17T08:48:46.701Z,11.40
2023-03-17T08:51:18.608Z,11.20
2023-03-17T08:53:47.614Z,11.10
2023-03-17T08:56:17.150Z,11.00
2023-03-17T08:58:45.868Z,11.00
2023-03-17T09:01:14.499Z,11.30
2023-03-17T09:03:43.397Z,11.50
2023-03-17T09:06:13.573Z,11.60
2023-03-17T09:08:45.034Z,11.60
2023-03-17T09:11:16.534Z,11.30
2023-03-17T09:13:46.354Z,11.00
2023-03-17T09:16:16.242Z,10.90
2023-03-17T09:18:44.857Z,10.90
2023-03-17T09:21:14.118Z,11.00
2023-03-17T09:23:44.116Z,11.20
2023-03-17T09:26:13.407Z,11.40
2023-03-17T09:28:41.528Z,11.40
2023-03-17T09:31:12.042Z,11.30
2023-03-17T09:33:40.679Z,11.40
2023-03-17T09:36:09.521Z,11.90
2023-03-17T09:38:37.891Z,12.20
2023-03-17T09:41:29.490Z,12.50
2023-03-17T09:44:06.710Z,12.70
2023-03-17T09:46:44.608Z,12.90
2023-03-17T09:49:16.461Z,13.00
2023-03-17T09:51:46.556Z,12.90
2023-03-17T09:54:19.911Z,13.00
2023-03-17T09:56:56.434Z,13.10
2023-03-17T09:59:31.154Z,13.10
2023-03-17T10:01:59.787Z,13.30
2023-03-17T10:04:28.204Z,13.30
2023-03-17T10:07:02.778Z,13.30
2023-03-17T10:09:40.089Z,13.10
2023-03-17T10:12:17.374Z,13.20
2023-03-17T10:14:59.501Z,13.20
2023-03-17T10:17:31.483Z,13.20
2023-03-17T10:20:15.800Z,13.20
2023-03-17T10:22:48.738Z,13.10
2023-03-17T10:25:18.980Z,13.10
2023-03-17T10:27:52.614Z,13.20
2023-03-17T10:30:23.898Z,13.30
2023-03-17T10:32:53.712Z,13.50
2023-03-17T10:35:24.547Z,13.50
2023-03-17T10:38:04.391Z,13.50
2023-03-17T10:40:40.367Z,13.30
2023-03-17T10:43:19.135Z,13.10
2023-03-17T10:45:55.871Z,13.00
2023-03-17T10:48:23.753Z,13.00
2023-03-17T10:50:52.950Z,13.00
2023-03-17T10:53:28.337Z,13.10
2023-03-17T10:56:01.021Z,13.30
2023-03-17T10:58:38.737Z,13.40
2023-03-17T11:01:16.223Z,13.50
2023-03-17T11:03:44.268Z,13.60
2023-03-17T11:06:15.843Z,13.60
2023-03-17T11:08:48.931Z,13.50
2023-03-17T11:11:25.047Z,13.60
2023-03-17T11:14:02.930Z,13.60
2023-03-17T11:16:35.765Z,13.70
2023-03-17T11:19:06.715Z,13.70
2023-03-17T11:21:47.743Z,13.80
2023-03-17T11:24:20.498Z,13.80
2023-03-17T11:27:00.131Z,13.80
2023-03-17T11:29:45.632Z,13.70
2023-03-17T11:32:26.644Z,13.80
2023-03-17T11:35:19.369Z,13.80
2023-03-17T11:38:05.585Z,13.80
2023-03-17T11:40:37.473Z,13.90
2023-03-17T11:43:26.258Z,14.00
2023-03-17T11:46:02.215Z,13.90
2023-03-17T11:48:41.414Z,14.00
2023-03-17T11:51:17.151Z,14.00
2023-03-17T11:54:09.587Z,14.00
2023-03-17T11:56:41.964Z,14.00
2023-03-17T11:59:18.400Z,14.10
2023-03-17T12:01:55.257Z,14.20
2023-03-17T12:04:34.487Z,14.30
2023-03-17T12:07:09.060Z,14.30
2023-03-17T12:09:42.230Z,14.30
2023-03-17T12:12:14.907Z,14.30
2023-03-17T12:14:48.653Z,14.20
2023-03-17T12:17:25.175Z,14.20
2023-03-17T12:20:12.556Z,14.20
2023-03-17T12:22:43.696Z,14.30
2023-03-17T12:25:19.251Z,14.40
2023-03-17T12:27:55.033Z,14.50
2023-03-17T12:30:29.145Z,14.60
2023-03-17T12:33:08.065Z,14.60
2023-03-17T12:35:38.701Z,14.60
2023-03-17T12:38:14.305Z,14.70
2023-03-17T12:41:00.791Z,14.80
2023-03-17T12:43:47.900Z,14.90
2023-03-17T12:46:40.319Z,14.90
2023-03-17T12:49:46.212Z,15.00
2023-03-17T12:52:22.685Z,15.10
2023-03-17T12:54:52.882Z,15.10
2023-03-17T12:57:26.209Z,15.10
2023-03-17T13:00:01.761Z,15.10
2023-03-17T13:02:38.421Z,15.10
2023-03-17T13:05:10.609Z,15.00
2023-03-17T13:07:42.970Z,15.10
2023-03-17T13:10:40.128Z,15.10
2023-03-17T13:13:15.356Z,15.10
2023-03-17T13:15:57.033Z,15.10
2023-03-17T13:18:48.834Z,15.20
2023-03-17T13:21:30.995Z,15.20
2023-03-17T13:24:23.632Z,15.30
2023-03-17T13:26:56.601Z,15.20
2023-03-17T13:29:27.652Z,15.30
2023-03-17T13:32:29.662Z,15.30
2023-03-17T13:35:17.231Z,15.30
2023-03-17T13:38:18.158Z,15.30
2023-03-17T13:40:55.929Z,15.40
2023-03-17T13:43:43.314Z,15.40
2023-03-17T13:46:28.068Z,15.40
2023-03-17T13:48:56.797Z,15.40
2023-03-17T13:51:27.248Z,15.30
2023-03-17T13:53:58.942Z,15.30
2023-03-17T13:56:30.382Z,15.30
2023-03-17T13:59:13.442Z,15.20
2023-03-17T14:01:46.951Z,15.20
2023-03-17T14:04:21.575Z,15.20
2023-03-17T14:06:55.208Z,15.30
2023-03-17T14:09:35.128Z,15.30
2023-03-17T14:12:08.747Z,15.30
2023-03-17T14:14:44.034Z,15.30
2023-03-17T14:17:17.001Z,15.40
2023-03-17T14:20:08.186Z,15.40
2023-03-17T14:22:44.943Z,15.30
2023-03-17T14:25:20.042Z,15.40
2023-03-17T14:27:50.846Z,15.40
2023-03-17T14:30:21.871Z,15.40
2023-03-17T14:32:53.301Z,15.40
2023-03-17T14:35:21.538Z,15.40
2023-03-17T14:37:49.780Z,15.40
2023-03-17T14:40:23.551Z,15.50
2023-03-17T14:42:51.514Z,15.40
2023-03-17T14:45:22.813Z,15.50
2023-03-17T14:47:51.666Z,15.50
2023-03-17T14:50:25.898Z,15.50
2023-03-17T14:52:54.050Z,15.50
2023-03-17T14:55:23.584Z,15.40
2023-03-17T14:57:53.494Z,15.40
2023-03-17T15:00:33.997Z,15.50
2023-03-17T15:03:05.250Z,15.50
2023-03-17T15:05:39.686Z,15.60
2023-03-17T15:08:31.373Z,15.50
2023-03-17T15:11:03.388Z,15.40
2023-03-17T15:13:35.835Z,15.30
2023-03-17T15:16:07.867Z,15.30
2023-03-17T15:18:36.149Z,15.30
2023-03-17T15:21:04.031Z,15.30
2023-03-17T15:23:40.296Z,15.30
2023-03-17T15:26:23.081Z,15.30
2023-03-17T15:28:50.980Z,15.40
2023-03-17T15:31:23.344Z,15.30
2023-03-17T15:33:52.237Z,15.30
2023-03-17T15:36:31.927Z,15.30
2023-03-17T15:39:01.091Z,15.30
2023-03-17T15:41:31.438Z,15.20
2023-03-17T15:44:00.714Z,15.20
2023-03-17T15:46:30.994Z,15.10
2023-03-17T15:49:00.329Z,15.10
2023-03-17T15:51:29.082Z,15.30
2023-03-17T15:53:57.035Z,15.40
2023-03-17T15:56:24.932Z,15.40
2023-03-17T15:58:54.201Z,15.40
2023-03-17T16:01:22.681Z,15.40
2023-03-17T16:03:51.091Z,15.30
2023-03-17T16:06:21.469Z,15.20
2023-03-17T16:08:50.447Z,15.20
2023-03-17T16:11:20.245Z,15.10
2023-03-17T16:13:48.478Z,15.00
2023-03-17T16:16:27.713Z,14.90
2023-03-17T16:18:55.825Z,14.90
2023-03-17T16:21:24.044Z,14.80
2023-03-17T16:23:51.964Z,14.90
2023-03-17T16:26:19.836Z,14.80
2023-03-17T16:28:49.475Z,14.80
2023-03-17T16:31:22.048Z,14.80
2023-03-17T16:33:50.712Z,14.70
2023-03-17T16:36:20.697Z,14.60
2023-03-17T16:38:49.637Z,14.60
2023-03-17T16:41:20.612Z,14.60
2023-03-17T16:43:52.896Z,14.50
2023-03-17T16:46:23.352Z,14.40
2023-03-17T16:48:53.494Z,14.40
2023-03-17T16:51:21.904Z,14.50
2023-03-17T16:53:49.876Z,14.40
2023-03-17T16:56:20.492Z,14.30
2023-03-17T16:58:48.781Z,14.20
2023-03-17T17:01:20.149Z,14.10
2023-03-17T17:03:50.506Z,14.00
2023-03-17T17:06:19.816Z,13.90
2023-03-17T17:08:48.394Z,13.80
2023-03-17T17:11:17.555Z,13.70
2023-03-17T17:13:47.503Z,13.50
2023-03-17T17:16:23.038Z,13.50
2023-03-17T17:18:52.251Z,13.40
2023-03-17T17:21:20.287Z,13.40
2023-03-17T17:23:48.507Z,13.30
2023-03-17T17:26:16.770Z,13.10
2023-03-17T17:28:44.708Z,13.00
2023-03-17T17:31:12.887Z,12.90
2023-03-17T17:33:41.023Z,12.80
2023-03-17T17:36:15.103Z,12.80
2023-03-17T17:38:43.727Z,12.80
2023-03-17T17:41:12.837Z,12.70
2023-03-17T17:43:41.236Z,12.60
2023-03-17T17:46:12.589Z,12.60
2023-03-17T17:48:41.016Z,12.50
2023-03-17T17:51:10.340Z,12.40
2023-03-17T17:53:38.164Z,12.40
2023-03-17T17:56:06.740Z,12.40
2023-03-17T17:58:34.896Z,12.40
2023-03-17T18:01:05.024Z,12.40
2023-03-17T18:03:33.150Z,12.40
2023-03-17T18:06:02.065Z,12.30
2023-03-17T18:08:31.331Z,12.40
2023-03-17T18:10:59.392Z,12.40
2023-03-17T18:13:27.608Z,12.40
2023-03-17T18:15:55.792Z,12.40
2023-03-17T18:18:24.023Z,12.40
2023-03-17T18:20:53.064Z,12.30
2023-03-17T18:23:21.156Z,12.40
2023-03-17T18:25:50.454Z,12.50
2023-03-17T18:28:18.297Z,12.50
2023-03-17T18:30:46.807Z,12.50
2023-03-17T18:33:17.428Z,12.70
2023-03-17T18:35:49.114Z,12.80
2023-03-17T18:38:17.107Z,12.70
2023-03-17T18:40:45.938Z,12.60
2023-03-17T18:43:15.396Z,12.40
2023-03-17T18:45:44.653Z,12.30
2023-03-17T18:48:12.569Z,12.10
2023-03-17T18:50:40.537Z,12.00
2023-03-17T18:53:08.734Z,11.90
2023-03-17T18:55:36.863Z,12.10
2023-03-17T18:58:05.163Z,12.30
2023-03-17T19:00:34.857Z,12.20
2023-03-17T19:03:03.063Z,12.20
2023-03-17T19:05:31.204Z,12.10
2023-03-17T19:07:59.355Z,12.00
2023-03-17T19:10:27.590Z,11.90
2023-03-17T19:12:55.447Z,11.70
2023-03-17T19:15:23.555Z,11.50
2023-03-17T19:17:52.938Z,11.40
2023-03-17T19:20:22.007Z,11.30
2023-03-17T19:22:53.210Z,11.30
2023-03-17T19:25:21.404Z,11.20
2023-03-17T19:27:49.348Z,11.20
2023-03-17T19:30:17.856Z,10.90
2023-03-17T19:32:46.604Z,10.80
2023-03-17T19:35:15.898Z,10.70
2023-03-17T19:37:43.764Z,10.80
2023-03-17T19:40:13.614Z,10.80
2023-03-17T19:42:41.620Z,10.80
2023-03-17T19:45:10.564Z,10.90
2023-03-17T19:47:38.453Z,10.90
2023-03-17T19:50:09.764Z,11.00
2023-03-17T19:52:38.995Z,11.00
2023-03-17T19:55:08.430Z,11.10
2023-03-17T19:57:36.759Z,11.10
2023-03-17T20:00:08.843Z,11.10
2023-03-17T20:02:36.763Z,11.10
2023-03-17T20:05:04.941Z,11.00
2023-03-17T20:07:33.625Z,10.80
2023-03-17T20:10:02.920Z,10.80
2023-03-17T20:12:32.298Z,10.70
2023-03-17T20:15:01.456Z,10.70
2023-03-17T20:17:29.437Z,10.60
2023-03-17T20:19:57.295Z,10.70
2023-03-17T20:22:25.511Z,10.80
2023-03-17T20:24:53.365Z,10.90
2023-03-17T20:27:22.620Z,10.90
2023-03-17T20:29:50.490Z,10.90
2023-03-17T20:32:18.411Z,10.90
2023-03-17T20:34:46.844Z,10.90
2023-03-17T20:37:15.034Z,10.90
2023-03-17T20:39:44.022Z,10.70
2023-03-17T20:42:14.890Z,10.50
2023-03-17T20:44:44.125Z,10.40
2023-03-17T20:47:14.140Z,10.40
2023-03-17T20:49:42.762Z,10.40
2023-03-17T20:52:15.277Z,10.40
2023-03-17T20:54:43.530Z,10.40
2023-03-17T20:57:14.688Z,10.30
2023-03-17T20:59:45.200Z,10.40
2023-03-17T21:02:15.888Z,10.40
2023-03-17T21:04:47.537Z,10.40
2023-03-17T21:07:16.497Z,10.40
2023-03-17T21:09:45.337Z,10.50
2023-03-17T21:12:14.764Z,10.50
2023-03-17T21:14:44.154Z,10.50
2023-03-17T21:17:12.317Z,10.40
2023-03-17T21:19:40.840Z,10.30
2023-03-17T21:22:09.061Z,10.20
2023-03-17T21:24:39.889Z,10.20
2023-03-17T21:27:11.347Z,10.20
2023-03-17T21:29:40.489Z,10.30
2023-03-17T21:32:10.019Z,10.10
2023-03-17T21:34:37.990Z,10.00
2023-03-17T21:37:06.157Z,10.00
2023-03-17T21:39:34.186Z,9.90
2023-03-17T21:42:02.190Z,9.90
2023-03-17T21:44:30.088Z,9.90
2023-03-17T21:46:57.926Z,9.80
2023-03-17T21:49:29.395Z,9.80
2023-03-17T21:51:57.726Z,9.80
2023-03-17T21:54:25.762Z,9.80
2023-03-17T21:56:53.697Z,9.80
2023-03-17T21:59:21.555Z,9.80
2023-03-17T22:01:52.086Z,9.90
2023-03-17T22:04:20.345Z,9.90
2023-03-17T22:06:49.904Z,9.90
2023-03-17T22:09:19.258Z,9.90
2023-03-17T22:11:47.366Z,9.90
2023-03-17T22:14:19.817Z,10.00
2023-03-17T22:16:48.677Z,10.00
2023-03-17T22:19:19.973Z,10.00
2023-03-17T22:21:51.702Z,10.10
2023-03-17T22:24:19.800Z,10.10
2023-03-17T22:26:47.659Z,10.00
2023-03-17T22:29:16.066Z,10.00
2023-03-17T22:31:43.986Z,10.00
2023-03-17T22:34:11.872Z,10.10
2023-03-17T22:36:39.861Z,10.00
2023-03-17T22:39:10.478Z,9.90
2023-03-17T22:41:39.667Z,9.90
2023-03-17T22:44:08.243Z,10.00
2023-03-17T22:46:36.727Z,10.30
2023-03-17T22:49:05.415Z,10.50
2023-03-17T22:51:35.408Z,10.40
2023-03-17T22:54:03.741Z,10.30
2023-03-17T22:56:32.941Z,10.20
2023-03-17T22:59:00.900Z,10.20
2023-03-17T23:01:29.046Z,10.10
2023-03-17T23:03:57.286Z,10.10
2023-03-17T23:06:25.683Z,10.00
2023-03-17T23:08:53.605Z,10.00
2023-03-17T23:11:23.675Z,10.00
2023-03-17T23:13:53.665Z,10.00
2023-03-17T23:16:22.113Z,10.00
2023-03-17T23:18:51.433Z,10.00
2023-03-17T23:21:25.541Z,10.00
2023-03-17T23:23:53.393Z,10.00
2023-03-17T23:26:21.269Z,10.10
2023-03-17T23:28:49.593Z,10.00
2023-03-17T23:31:19.562Z,10.10
2023-03-17T23:33:48.166Z,10.10
2023-03-17T23:36:18.753Z,10.10
2023-03-17T23:38:48.597Z,10.10
2023-03-17T23:41:17.440Z,10.20
2023-03-17T23:43:46.751Z,10.10
2023-03-17T23:46:15.569Z,10.00
2023-03-17T23:48:44.979Z,10.00
2023-03-17T23:51:14.393Z,10.00
2023-03-17T23:53:42.869Z,10.00
2023-03-17T23:56:13.063Z,10.00
2023-03-17T23:58:42.361Z,10.00
